Monte Vista, California
Current Conditions -  °F | °C
As of 4:56 PM on Saturday 25 Oct 2014 (Local Time) from KNUQ Reporting Station
Scattered Clouds Scattered Clouds  
Wind Chill: 69°   Ceiling: Unl
Heat Index: 69°   Visibility: 10mi
Dew Point: 51°   Wind: 7mph
Humidity: 53%   Direction: 270°W
Pressure: 30.07"   Gusts: NA
Location:  37.305°N, 122.094°W
Report Text: KNUQ 252356Z 27006KT 10SM SCT040 21/11 A3007 RMK AO2 SLP186 60000 T02060106 10222 20194 53000
Loading
Personal Weather Stations






























Interactive Weather Map
Tropical Storm Tracking
New forecast layout! Learn more

10-Day Weather Forecast

Advertisements
Track Severe Weather on mobile